Petange, Luxembourg
Current Conditions -  °F | °C
As of 1:20 AM on Thursday 27 Nov 2014 (Local Time) from ELLX Reporting Station
NA  
Wind Chill:   Ceiling: NA
Heat Index:   Visibility: NA
Dew Point:   Wind: 3mph
Humidity: 100%   Direction: NA
Pressure: 29.85"   Gusts: NA
Location:  49.56°N, 5.88°E
Report Text: ELLX 270020Z AUTO VRB03KT //// 05/05 Q1011
Loading
Personal Weather Stations






























Interactive Weather Map New forecast layout! Learn more

10-Day Weather Forecast

Advertisements
Track Severe Weather on mobile